METAR Analyzer

一覧表示

Hello, Guest. (Login)

RJTT/HND  -  東京/羽田

観測日時
2021-08-05 01:30 (UTC) (18分前)
気温
32
露点
25
湿数
7
相対湿度
66.6%
QNH
1008.8hPa
推定現地気圧
1008.1hPa
推定海面気圧
1008.8hPa
体感温度
27.4
(無風時)
29.6
HI
39.2
気温前日比
±0
体感温度前日比
+0.1
HI前日比
-1.5
水平視程
>10000m
鉛直視程
データなし
雲底高度
No dense clouds
V/I
VMC (VFR)
RVR
No RVR data
卓越風
7kt from 90°
ガスト
No gust
降水
報告なし
その他の天気
報告なし
少しの(1/8) 積雲 @ 2000ft AGL

RJTT 050130Z 09007KT 9999 FEW020 32/25 Q1008 NOSIG RMK 1CU020 A2979

RJAA/NRT  -  東京/成田

観測日時
2021-08-05 01:30 (UTC) (18分前)
気温
30
露点
24
湿数
6
相対湿度
70.3%
QNH
1008.8hPa
推定現地気圧
1007.5hPa
推定海面気圧
1008.7hPa
体感温度
25.3
(無風時)
28.3
HI
35.1
気温前日比
-1
体感温度前日比
-1.5
HI前日比
-2.6
水平視程
>10000m
鉛直視程
データなし
雲底高度
No dense clouds
V/I
VMC (VFR)
RVR
No RVR data
卓越風
7kt from 130° (80° ~ 170°)
ガスト
No gust
降水
報告なし
その他の天気
報告なし
少しの(2/8) 積雲 @ 2500ft AGL

RJAA 050130Z 13007KT 080V170 9999 FEW025 30/24 Q1009 NOSIG RMK 2CU025 A2979

RJTF  -  調布

観測日時
2021-08-05 01:00 (UTC) (48分前)
気温
32
露点
24
湿数
8
相対湿度
62.7%
QNH
1008hPa
推定現地気圧
1003.0hPa
推定海面気圧
1007.7hPa
体感温度
27.7
(無風時)
29.2
HI
37.9
気温前日比
±0
体感温度前日比
-0.6
HI前日比
-1.3
水平視程
>10000m
鉛直視程
データなし
雲底高度
No dense clouds
V/I
VMC (VFR)
RVR
No RVR data
卓越風
3kt from VRB
ガスト
No gust
降水
報告なし
その他の天気
報告なし
少しの雲 @ 3000ft AGL

RJTF 050100Z VRB03KT 9999 FEW030 32/24 Q1008

RJTI  -  東京ヘリポート

観測日時
2021-08-05 01:00 (UTC) (48分前)
気温
31
露点
25
湿数
6
相対湿度
70.5%
QNH
1008hPa
推定現地気圧
1007.4hPa
推定海面気圧
1008.0hPa
体感温度
26.3
(無風時)
29.1
HI
37.7
気温前日比
±0
体感温度前日比
-0.4
HI前日比
-2.9
水平視程
>10000m
鉛直視程
データなし
雲底高度
No dense clouds
V/I
VMC (VFR)
RVR
No RVR data
卓越風
9kt from 160°
ガスト
No gust
降水
報告なし
その他の天気
報告なし
少しの雲 @ 2000ft AGL

RJTI 050100Z 16009KT 9999 FEW020 31/25 Q1008

RJTY/OKO  -  横田基地

観測日時
2021-08-05 00:56 (UTC) (52分前)
気温
32.6
露点
25.1
湿数
7.5
相対湿度
64.8%
QNH
1010.8hPa
推定現地気圧
994.0hPa
推定海面気圧
1009.7hPa
体感温度
29.9
(無風時)
29.9
HI
40.2
気温前日比
+1.1
体感温度前日比
+2.4
HI前日比
+1.3
水平視程
>10SM
鉛直視程
データなし
雲底高度
No dense clouds
V/I
VMC (VFR)
RVR
No RVR data
卓越風
静穏
ガスト
No gust
降水
報告なし
その他の天気
報告なし
目立った雲なし

RJTY 050056Z AUTO 00000KT 10SM CLR 33/25 A2985 RMK AO2 SLP102 T03260251 FZRANO $

RJTC  -  立川飛行場

観測日時
2021-08-05 01:00 (UTC) (48分前)
気温
32
露点
23
湿数
9
相対湿度
59.1%
QNH
1009.1hPa
推定現地気圧
997.8hPa
推定海面気圧
1008.4hPa
体感温度
27.2
(無風時)
28.9
HI
36.8
気温前日比
+2
体感温度前日比
+1.3
HI前日比
+1.7
水平視程
>10000m
鉛直視程
データなし
雲底高度
No dense clouds
V/I
VMC (VFR)
RVR
No RVR data
卓越風
4kt from 100° (70° ~ 130°)
ガスト
No gust
降水
報告なし
その他の天気
報告なし
少しの(1/8) 積雲 @ 2000ft AGL

RJTC 050100Z 10004KT 070V130 9999 FEW020 32/23 Q1009 RMK 1CU020 A2980

RJAI  -  市ヶ谷駐屯地/地区/基地

観測日時
2021-08-05 01:00 (UTC) (48分前)
気温
31
露点
22
湿数
9
相対湿度
58.8%
QNH
1010.2hPa
推定現地気圧
1010.2hPa
推定海面気圧
1010.2hPa
体感温度
26.1
(無風時)
28.2
HI
34.6
気温前日比
+1
体感温度前日比
+0.5
HI前日比
+0.5
水平視程
>10000m
鉛直視程
データなし
雲底高度
No dense clouds
V/I
VMC (VFR)
RVR
No RVR data
卓越風
4kt from 40°
ガスト
No gust
降水
報告なし
その他の天気
報告なし
少しの(1/8) 積雲 @ 4000ft AGL

RJAI 050100Z 04004KT 9999 FEW040 31/22 Q1010 RMK 1CU040 A2983

RJTK  -  木更津駐屯地

観測日時
2021-08-05 01:00 (UTC) (48分前)
気温
32
露点
23
湿数
9
相対湿度
59.1%
QNH
1008.8hPa
推定現地気圧
1008.4hPa
推定海面気圧
1008.7hPa
体感温度
27.1
(無風時)
28.9
HI
36.8
気温前日比
+1
体感温度前日比
+0.7
HI前日比
-0.9
水平視程
>10000m
鉛直視程
データなし
雲底高度
No dense clouds
V/I
VMC (VFR)
RVR
No RVR data
卓越風
5kt from 80° (20° ~ 140°)
ガスト
No gust
降水
報告なし
その他の天気
報告なし
少しの(1/8) 積雲 @ 2500ft AGL / 散在する(3/8) 積雲 @ 3000ft AGL

RJTK 050100Z 08005KT 020V140 9999 FEW025 SCT030 32/23 Q1008 RMK 1CU025 3CU030 A2979

RJTL  -  下総航空基地

観測日時
2021-08-05 01:00 (UTC) (48分前)
気温
31
露点
22
湿数
9
相対湿度
58.8%
QNH
1008.8hPa
推定現地気圧
1005.2hPa
推定海面気圧
1008.6hPa
体感温度
25.8
(無風時)
28.2
HI
34.6
気温前日比
-0.5
体感温度前日比
-1.6
HI前日比
-3.9
水平視程
>10000m
鉛直視程
データなし
雲底高度
No dense clouds
V/I
VMC (VFR)
RVR
No RVR data
卓越風
6kt from 80° (40° ~ 130°)
ガスト
No gust
降水
報告なし
その他の天気
報告なし
少しの(1/8) 積雲 @ 3000ft AGL / 散在する雲 @ 不明な高さ

RJTL 050100Z 08006KT 040V130 9999 FEW030 SCT/// 31/22 Q1008 RMK 1CU030 A2979

RJTE  -  館山航空基地

観測日時
2021-08-05 01:00 (UTC) (48分前)
気温
30
露点
23
湿数
7
相対湿度
66.2%
QNH
1008.8hPa
推定現地気圧
1008.4hPa
推定海面気圧
1008.7hPa
体感温度
24.7
(無風時)
28
HI
34.1
気温前日比
±0
体感温度前日比
-1
HI前日比
-1
水平視程
>10000m
鉛直視程
データなし
雲底高度
No dense clouds
V/I
VMC (VFR)
RVR
No RVR data
卓越風
9kt from 90° (60° ~ 120°)
ガスト
No gust
降水
報告なし
その他の天気
報告なし
散在する(3/8) 積雲 @ 2000ft AGL

RJTE 050100Z 09009KT 060V120 9999 SCT020 30/23 Q1008 RMK 3CU020 A2979

RJTA/NJA  -  厚木海軍飛行場

観測日時
2021-08-05 01:00 (UTC) (48分前)
気温
32
露点
22
湿数
10
相対湿度
55.6%
QNH
1009.1hPa
推定現地気圧
1001.7hPa
推定海面気圧
1008.7hPa
体感温度
26.6
(無風時)
28.6
HI
35.8
気温前日比
+1
体感温度前日比
+0.3
HI前日比
-0.7
水平視程
>10000m
鉛直視程
データなし
雲底高度
No dense clouds
V/I
VMC (VFR)
RVR
No RVR data
卓越風
6kt from VRB
ガスト
No gust
降水
報告なし
その他の天気
報告なし
少しの(2/8) 積雲 @ 2000ft AGL

RJTA 050100Z VRB06KT 9999 FEW020 32/22 Q1009 RMK 2CU020 A2980

RJTR  -  キャンプ座間

観測日時
2021-08-05 00:58 (UTC) (50分前)
気温
31.1
露点
23.4
湿数
7.7
相対湿度
63.7%
QNH
1008.5hPa
推定現地気圧
995.2hPa
推定海面気圧
1007.8hPa
体感温度
28.6
(無風時)
28.6
HI
36
気温前日比
+1.1
体感温度前日比
+3.2
HI前日比
+1.6
水平視程
>10SM
鉛直視程
データなし
雲底高度
No dense clouds
V/I
VMC (VFR)
RVR
No RVR data
卓越風
静穏
ガスト
No gust
降水
報告なし
その他の天気
報告なし
目立った雲なし

RJTR 050058Z AUTO 00000KT 10SM CLR 31/23 A2978 RMK AO2 SLP083 T03110234 $

RJAH/IBR  -  茨城(百里基地)

観測日時
2021-08-05 01:00 (UTC) (48分前)
気温
30
露点
23
湿数
7
相対湿度
66.2%
QNH
1008hPa
推定現地気圧
1004.1hPa
推定海面気圧
1007.8hPa
体感温度
26.3
(無風時)
28
HI
34.1
気温前日比
±0
体感温度前日比
+0.8
HI前日比
-1
水平視程
>10000m
鉛直視程
データなし
雲底高度
No dense clouds
V/I
VMC (VFR)
RVR
No RVR data
卓越風
2kt from VRB
ガスト
No gust
降水
報告なし
その他の天気
報告なし
少しの雲 @ 2000ft AGL / 散在する雲 @ 3000ft AGL

RJAH 050100Z VRB02KT 9999 FEW020 SCT030 30/23 Q1008

RJAK  -  霞ヶ浦駐屯地

観測日時
2021-08-05 01:00 (UTC) (48分前)
気温
32
露点
22
湿数
10
相対湿度
55.6%
QNH
1009.5hPa
推定現地気圧
1006.4hPa
推定海面気圧
1009.3hPa
体感温度
26.9
(無風時)
28.6
HI
35.8
気温前日比
+1
体感温度前日比
+0.4
HI前日比
-0.7
水平視程
>10000m
鉛直視程
データなし
雲底高度
No dense clouds
V/I
VMC (VFR)
RVR
No RVR data
卓越風
4kt from VRB
ガスト
No gust
降水
報告なし
その他の天気
報告なし
少しの(1/8) 積雲 @ 3000ft AGL

RJAK 050100Z VRB04KT 9999 FEW030 32/22 Q1009 RMK 1CU030 A2981

RJTU/QUT  -  北宇都宮駐屯地

観測日時
2021-08-05 01:00 (UTC) (48分前)
気温
30
露点
25
湿数
5
相対湿度
74.6%
QNH
1009.5hPa
推定現地気圧
997.3hPa
推定海面気圧
1008.8hPa
体感温度
26.9
(無風時)
28.7
HI
36.2
気温前日比
+1
体感温度前日比
+1.2
HI前日比
+1.7
水平視程
>10000m
鉛直視程
データなし
雲底高度
No dense clouds
V/I
VMC (VFR)
RVR
No RVR data
卓越風
2kt from VRB
ガスト
No gust
降水
報告なし
その他の天気
報告なし
少しの(1/8) 積雲 @ 1500ft AGL

RJTU 050100Z VRB02KT 9999 FEW015 30/25 Q1009 RMK 1CU015 A2981

RJTS  -  相馬原駐屯地

観測日時
2021-08-05 01:00 (UTC) (48分前)
気温
29
露点
23
湿数
6
相対湿度
70.1%
QNH
1010.5hPa
推定現地気圧
963.7hPa
推定海面気圧
1007.8hPa
体感温度
25.1
(無風時)
27.5
HI
32.8
気温前日比
-1
体感温度前日比
-0.8
HI前日比
-1.3
水平視程
>10000m
鉛直視程
データなし
雲底高度
No dense clouds
V/I
VMC (VFR)
RVR
No RVR data
卓越風
3kt from 160°
ガスト
No gust
降水
報告なし
その他の天気
報告なし
少しの(1/8) 積雲 @ 2000ft AGL

RJTS 050100Z 16003KT 9999 FEW020 29/23 Q1010 RMK 1CU020 A2984

RJTJ  -  入間飛行場

観測日時
2021-08-05 01:00 (UTC) (48分前)
気温
31
露点
24
湿数
7
相対湿度
66.4%
QNH
1009.1hPa
推定現地気圧
998.4hPa
推定海面気圧
1008.5hPa
体感温度
26.7
(無風時)
28.8
HI
36.5
気温前日比
-1
体感温度前日比
-2
HI前日比
-4.2
水平視程
>10000m
鉛直視程
データなし
雲底高度
No dense clouds
V/I
VMC (VFR)
RVR
No RVR data
卓越風
4kt from 60° (10° ~ 150°)
ガスト
No gust
降水
報告なし
その他の天気
報告なし
少しの(1/8) 積雲 @ 2000ft AGL

RJTJ 050100Z 06004KT 010V150 9999 FEW020 31/24 Q1009 RMK 1CU020 A2980

RJTO/OIM  -  大島

観測日時
2021-08-05 01:00 (UTC) (48分前)
気温
29
露点
25
湿数
4
相対湿度
79.1%
QNH
1008hPa
推定現地気圧
1003.5hPa
推定海面気圧
1007.8hPa
体感温度
24
(無風時)
28.2
HI
34.5
気温前日比
+1
体感温度前日比
-0.9
HI前日比
+1.8
水平視程
>10000m
鉛直視程
データなし
雲底高度
No dense clouds
V/I
VMC (VFR)
RVR
No RVR data
卓越風
11kt from 40°
ガスト
No gust
降水
報告なし
その他の天気
報告なし
少しの雲 @ 1000ft AGL

RJTO 050100Z 04011KT 9999 FEW010 29/25 Q1008

RJTH/HAC  -  八丈島

観測日時
2021-08-05 01:00 (UTC) (48分前)
気温
26
露点
26
湿数
0
相対湿度
100%
QNH
1007.8hPa
推定現地気圧
996.8hPa
推定海面気圧
1007.3hPa
体感温度
20.6
(無風時)
27.1
HI
27.3
気温前日比
-3
体感温度前日比
-2.9
HI前日比
-6.3
水平視程
8000m
鉛直視程
データなし
雲底高度
2000ft AGL
V/I
VMC (VFR)
RVR
No RVR data
卓越風
13kt from 50°
ガスト
No gust
降水
中程度の雨
その他の天気
報告なし
少しの雲 @ 400ft AGL / 散在する雲 @ 1400ft AGL / 隙間のある雲 @ 2000ft AGL

RJTH 050100Z 05013KT 8000 RA FEW004 SCT014 BKN020 26/26 Q1007 RMK A2976

RJAN  -  新島

観測日時
2021-08-05 01:00 (UTC) (48分前)
気温
29
露点
25
湿数
4
相対湿度
79.1%
QNH
1008.5hPa
推定現地気圧
1005.0hPa
推定海面気圧
1008.3hPa
体感温度
24.2
(無風時)
28.2
HI
34.5
気温前日比
±0
体感温度前日比
-0.1
HI前日比
+0.9
水平視程
>10000m
鉛直視程
データなし
雲底高度
2200ft AGL
V/I
VMC (VFR)
RVR
No RVR data
卓越風
10kt from 70°
ガスト
No gust
降水
報告なし
その他の天気
報告なし
散在する雲 @ 1200ft AGL / 隙間のある雲 @ 2200ft AGL

RJAN 050100Z 07010KT 9999 SCT012 BKN022 29/25 Q1008 RMK A2978

RJAZ  -  神津島

観測日時
2021-08-05 01:00 (UTC) (48分前)
気温
28
露点
24
湿数
4
相対湿度
78.9%
QNH
1008.8hPa
推定現地気圧
992.4hPa
推定海面気圧
1008.0hPa
体感温度
22.8
(無風時)
27.4
HI
31.9
気温前日比
±0
体感温度前日比
-0.6
HI前日比
±0
水平視程
>10000m
鉛直視程
データなし
雲底高度
No dense clouds
V/I
VMC (VFR)
RVR
No RVR data
卓越風
10kt from 100°
ガスト
No gust
降水
報告なし
その他の天気
報告なし
散在する雲 @ 1000ft AGL

RJAZ 050100Z 10010KT 9999 SCT010 28/24 Q1008 RMK A2979

RJTQ/MYE  -  三宅島

観測日時
2021-08-05 01:00 (UTC) (48分前)
気温
30
露点
26
湿数
4
相対湿度
79.2%
QNH
1008.1hPa
推定現地気圧
1005.7hPa
推定海面気圧
1008.0hPa
体感温度
25.1
(無風時)
29
HI
37.4
気温前日比
+1
体感温度前日比
-0.3
HI前日比
+2.9
水平視程
>10000m
鉛直視程
データなし
雲底高度
3000ft AGL
V/I
VMC (VFR)
RVR
No RVR data
卓越風
14kt from 60°
ガスト
No gust
降水
報告なし
その他の天気
報告なし
散在する雲 @ 1800ft AGL / 隙間のある雲 @ 3000ft AGL

RJTQ 050100Z 06014KT 9999 SCT018 BKN030 30/26 Q1008 RMK A2977

RJAO  -  父島ヘリポート

観測日時
2021-08-05 00:00 (UTC) (108分前)
気温
29
露点
26
湿数
3
相対湿度
83.9%
QNH
1004.7hPa
推定現地気圧
1004.7hPa
推定海面気圧
1004.7hPa
体感温度
24.6
(無風時)
28.6
HI
35.6
気温前日比
+1
体感温度前日比
+1.3
HI前日比
+1.8
水平視程
>10000m
鉛直視程
データなし
雲底高度
No dense clouds
V/I
VMC (VFR)
RVR
No RVR data
卓越風
9kt from 230°
ガスト
No gust
降水
報告なし
その他の天気
報告なし
少しの(2/8) 積雲 @ 1500ft AGL

RJAO 050000Z 23009KT 9999 FEW015 29/26 Q1004 RMK 2CU015 A2967 SEA 0.3M

RJAW/IWO  -  硫黄島分屯基地

観測日時
2021-08-05 01:00 (UTC) (48分前)
気温
29
露点
24
湿数
5
相対湿度
74.5%
QNH
1006.1hPa
推定現地気圧
992.1hPa
推定海面気圧
1005.4hPa
体感温度
23.9
(無風時)
27.9
HI
33.6
気温前日比
±0
体感温度前日比
-0.4
HI前日比
±0
水平視程
>10000m
鉛直視程
データなし
雲底高度
No dense clouds
V/I
VMC (VFR)
RVR
No RVR data
卓越風
10kt from 240° (210° ~ 270°)
ガスト
No gust
降水
報告なし
その他の天気
報告なし
少しの(1/8) 積雲 @ 1000ft AGL / 散在する(4/8) 積雲 @ 1500ft AGL

RJAW 050100Z 24010KT 210V270 9999 FEW010 SCT015 29/24 Q1006 RMK 1CU010 4CU015 A2971

RJAM/MUS  -  南鳥島航空基地